createdAt,value
2018-11-05T00:01:33.537Z,51.49
2018-11-05T00:03:59.526Z,51.50
2018-11-05T00:06:25.509Z,51.47
2018-11-05T00:08:51.501Z,51.43
2018-11-05T00:11:17.510Z,51.40
2018-11-05T00:13:43.499Z,51.41
2018-11-05T00:16:09.482Z,51.33
2018-11-05T00:18:35.504Z,51.28
2018-11-05T00:21:01.513Z,51.30
2018-11-05T00:23:27.501Z,51.20
2018-11-05T00:25:53.488Z,51.18
2018-11-05T00:28:19.495Z,51.22
2018-11-05T00:30:45.510Z,51.13
2018-11-05T00:33:11.492Z,51.13
2018-11-05T00:35:37.509Z,51.11
2018-11-05T00:38:03.514Z,51.12
2018-11-05T00:40:29.501Z,50.99
2018-11-05T00:42:55.480Z,51.02
2018-11-05T00:45:21.471Z,51.05
2018-11-05T00:47:47.464Z,50.95
2018-11-05T00:50:13.453Z,50.85
2018-11-05T00:52:39.458Z,50.89
2018-11-05T00:55:05.447Z,50.95
2018-11-05T00:57:31.434Z,50.74
2018-11-05T00:59:57.421Z,50.71
2018-11-05T01:02:23.412Z,50.86
2018-11-05T01:04:49.437Z,50.79
2018-11-05T01:07:15.447Z,50.66
2018-11-05T01:09:41.498Z,50.77
2018-11-05T01:12:07.512Z,50.76
2018-11-05T01:14:33.521Z,50.54
2018-11-05T01:16:59.529Z,50.70
2018-11-05T01:19:25.547Z,50.58
2018-11-05T01:21:51.524Z,50.64
2018-11-05T01:24:17.649Z,50.52
2018-11-05T01:26:43.638Z,50.67
2018-11-05T01:29:09.640Z,50.65
2018-11-05T01:31:35.639Z,50.30
2018-11-05T01:34:01.653Z,50.45
2018-11-05T01:36:27.704Z,50.31
2018-11-05T01:38:53.709Z,50.46
2018-11-05T01:41:19.722Z,50.31
2018-11-05T01:43:45.711Z,50.30
2018-11-05T01:46:11.727Z,50.19
2018-11-05T01:48:37.708Z,50.30
2018-11-05T01:51:03.736Z,50.16
2018-11-05T01:53:29.719Z,50.23
2018-11-05T01:55:55.708Z,50.08
2018-11-05T01:58:21.717Z,49.93
2018-11-05T02:00:47.727Z,50.12
2018-11-05T02:03:13.713Z,50.12
2018-11-05T02:05:39.696Z,50.13
2018-11-05T02:08:05.690Z,50.09
2018-11-05T02:10:31.788Z,50.24
2018-11-05T02:12:57.657Z,50.20
2018-11-05T02:15:23.641Z,50.25
2018-11-05T02:17:49.663Z,50.00
2018-11-05T02:20:15.650Z,50.21
2018-11-05T02:22:41.663Z,50.20
2018-11-05T02:25:07.651Z,49.78
2018-11-05T02:27:33.629Z,49.95
2018-11-05T02:29:59.641Z,49.90
2018-11-05T02:32:25.646Z,50.16
2018-11-05T02:34:51.656Z,50.16
2018-11-05T02:37:17.667Z,50.08
2018-11-05T02:39:43.648Z,49.84
2018-11-05T02:42:09.629Z,49.83
2018-11-05T02:44:35.643Z,49.78
2018-11-05T02:47:01.653Z,49.86
2018-11-05T02:49:27.672Z,49.51
2018-11-05T02:51:53.681Z,49.58
2018-11-05T02:54:19.694Z,49.71
2018-11-05T02:56:45.694Z,49.59
2018-11-05T02:59:11.716Z,49.56
2018-11-05T03:01:37.728Z,49.45
2018-11-05T03:04:03.744Z,49.52
2018-11-05T03:06:29.753Z,49.76
2018-11-05T03:08:55.762Z,49.85
2018-11-05T03:11:21.772Z,49.79
2018-11-05T03:13:47.818Z,49.84
2018-11-05T03:16:13.852Z,49.82
2018-11-05T03:18:39.863Z,49.69
2018-11-05T03:21:05.893Z,49.63
2018-11-05T03:23:31.902Z,49.34
2018-11-05T03:25:57.935Z,49.77
2018-11-05T03:28:23.944Z,49.50
2018-11-05T03:30:49.951Z,49.16
2018-11-05T03:33:15.942Z,49.63
2018-11-05T03:35:41.992Z,49.66
2018-11-05T03:38:07.932Z,49.54
2018-11-05T03:40:33.917Z,49.51
2018-11-05T03:42:59.936Z,49.53
2018-11-05T03:45:25.908Z,49.44
2018-11-05T03:47:51.895Z,49.42
2018-11-05T03:50:17.903Z,49.29
2018-11-05T03:52:43.897Z,49.34
2018-11-05T03:55:09.876Z,49.11
2018-11-05T03:57:35.881Z,49.18
2018-11-05T04:00:01.865Z,49.64
2018-11-05T04:02:27.885Z,49.60
2018-11-05T04:04:53.868Z,49.57
2018-11-05T04:07:19.906Z,49.51
2018-11-05T04:09:45.913Z,49.66
2018-11-05T04:12:11.956Z,49.69
2018-11-05T04:14:37.969Z,49.25
2018-11-05T04:17:03.956Z,49.59
2018-11-05T04:19:29.979Z,49.61
2018-11-05T04:21:55.985Z,49.56
2018-11-05T04:24:21.991Z,49.46
2018-11-05T04:26:47.976Z,49.55
2018-11-05T04:29:13.977Z,49.44
2018-11-05T04:31:40.012Z,49.45
2018-11-05T04:34:06.011Z,49.29
2018-11-05T04:36:32.022Z,49.51
2018-11-05T04:38:58.038Z,49.57
2018-11-05T04:41:24.044Z,49.30
2018-11-05T04:43:50.052Z,49.40
2018-11-05T04:46:16.063Z,49.32
2018-11-05T04:48:42.119Z,49.35
2018-11-05T04:51:08.119Z,49.29
2018-11-05T04:53:34.104Z,49.03
2018-11-05T04:56:00.121Z,49.20
2018-11-05T04:58:26.130Z,49.17
2018-11-05T05:00:52.141Z,49.42
2018-11-05T05:03:18.213Z,49.30
2018-11-05T05:05:44.248Z,49.34
2018-11-05T05:08:10.223Z,49.36
2018-11-05T05:10:36.212Z,49.32
2018-11-05T05:13:02.214Z,49.28
2018-11-05T05:15:28.201Z,49.39
2018-11-05T05:17:54.185Z,49.29
2018-11-05T05:20:20.171Z,49.51
2018-11-05T05:22:46.349Z,49.76
2018-11-05T05:25:12.166Z,49.66
2018-11-05T05:27:38.165Z,49.74
2018-11-05T05:30:04.187Z,49.86
2018-11-05T05:32:30.152Z,49.61
2018-11-05T05:34:56.126Z,49.79
2018-11-05T05:37:22.144Z,49.74
2018-11-05T05:39:48.134Z,49.75
2018-11-05T05:42:14.133Z,49.75
2018-11-05T05:44:40.146Z,49.85
2018-11-05T05:47:06.139Z,49.78
2018-11-05T05:49:32.154Z,49.77
2018-11-05T05:51:58.134Z,49.86
2018-11-05T05:54:24.159Z,50.06
2018-11-05T05:56:50.145Z,50.09
2018-11-05T05:59:16.198Z,50.14
2018-11-05T06:01:42.156Z,50.16
2018-11-05T06:04:08.161Z,50.11
2018-11-05T06:06:34.216Z,50.30
2018-11-05T06:09:00.172Z,50.32
2018-11-05T06:11:26.183Z,50.35
2018-11-05T06:13:52.222Z,50.49
2018-11-05T06:16:18.287Z,50.58
2018-11-05T06:18:44.266Z,50.62
2018-11-05T06:21:10.282Z,50.79
2018-11-05T06:23:36.323Z,50.80
2018-11-05T06:26:02.350Z,50.80
2018-11-05T06:28:28.452Z,51.01
2018-11-05T06:30:54.481Z,50.95
2018-11-05T06:33:20.462Z,50.93
2018-11-05T06:35:46.491Z,50.91
2018-11-05T06:38:12.579Z,51.00
2018-11-05T06:40:38.572Z,50.91
2018-11-05T06:43:04.581Z,50.89
2018-11-05T06:45:30.590Z,50.96
2018-11-05T06:47:56.623Z,51.02
2018-11-05T06:50:22.626Z,50.94
2018-11-05T06:52:48.686Z,50.98
2018-11-05T06:55:14.686Z,51.03
2018-11-05T06:57:40.722Z,51.01
2018-11-05T07:00:06.721Z,51.04
2018-11-05T07:02:32.780Z,51.05
2018-11-05T07:04:58.774Z,51.05
2018-11-05T07:07:24.759Z,51.08
2018-11-05T07:09:50.875Z,51.19
2018-11-05T07:12:16.810Z,51.20
2018-11-05T07:14:42.827Z,51.22
2018-11-05T07:17:08.833Z,51.24
2018-11-05T07:19:34.924Z,51.34
2018-11-05T07:22:00.921Z,51.43
2018-11-05T07:24:26.999Z,51.38
2018-11-05T07:26:53.034Z,51.56
2018-11-05T07:29:19.047Z,51.72
2018-11-05T07:31:45.162Z,51.50
2018-11-05T07:34:11.206Z,51.57
2018-11-05T07:36:37.165Z,51.78
2018-11-05T07:39:03.203Z,51.87
2018-11-05T07:41:29.230Z,51.82
2018-11-05T07:43:55.305Z,51.71
2018-11-05T07:46:21.337Z,52.17
2018-11-05T07:48:47.327Z,51.89
2018-11-05T07:51:13.320Z,51.82
2018-11-05T07:53:39.646Z,51.98
2018-11-05T07:56:05.677Z,52.03
2018-11-05T07:58:31.649Z,52.14
2018-11-05T08:00:57.656Z,52.32
2018-11-05T08:03:23.641Z,52.23
2018-11-05T08:05:49.777Z,52.22
2018-11-05T08:08:16.191Z,52.00
2018-11-05T08:10:42.042Z,52.17
2018-11-05T08:13:08.027Z,52.19
2018-11-05T08:15:34.030Z,52.02
2018-11-05T08:18:00.030Z,52.16
2018-11-05T08:20:26.011Z,52.19
2018-11-05T08:22:52.171Z,52.17
2018-11-05T08:25:18.189Z,51.95
2018-11-05T08:27:44.202Z,51.97
2018-11-05T08:30:10.238Z,51.99
2018-11-05T08:32:36.258Z,51.98
2018-11-05T08:35:02.231Z,51.89
2018-11-05T08:37:28.311Z,51.82
2018-11-05T08:39:54.434Z,51.97
2018-11-05T08:42:20.480Z,51.78
2018-11-05T08:44:46.499Z,51.86
2018-11-05T08:47:12.476Z,51.87
2018-11-05T08:49:38.455Z,51.91
2018-11-05T08:52:04.481Z,51.86
2018-11-05T08:54:30.503Z,51.83
2018-11-05T08:56:56.498Z,52.06
2018-11-05T08:59:22.606Z,52.10
2018-11-05T09:01:48.599Z,51.99
2018-11-05T09:04:14.595Z,51.93
2018-11-05T09:06:40.691Z,51.96
2018-11-05T09:09:06.699Z,51.98
2018-11-05T09:11:33.033Z,51.84
2018-11-05T09:13:58.652Z,51.87
2018-11-05T09:16:24.710Z,51.77
2018-11-05T09:18:50.718Z,51.92
2018-11-05T09:21:16.722Z,52.02
2018-11-05T09:23:42.741Z,51.77
2018-11-05T09:26:08.898Z,51.87
2018-11-05T09:28:34.875Z,52.07
2018-11-05T09:31:00.952Z,51.96
2018-11-05T09:33:26.943Z,52.03
2018-11-05T09:35:52.931Z,52.30
2018-11-05T09:38:18.988Z,52.76
2018-11-05T09:40:45.017Z,52.51
2018-11-05T09:43:10.989Z,52.39
2018-11-05T09:45:36.998Z,52.31
2018-11-05T09:48:02.994Z,52.21
2018-11-05T09:50:29.034Z,52.34
2018-11-05T09:52:55.003Z,52.37
2018-11-05T09:55:21.005Z,52.34
2018-11-05T09:57:47.059Z,52.12
2018-11-05T10:00:13.057Z,51.75
2018-11-05T10:02:39.104Z,51.39
2018-11-05T10:05:05.304Z,51.50
2018-11-05T10:07:31.081Z,51.72
2018-11-05T10:09:57.164Z,51.53
2018-11-05T10:12:23.144Z,51.80
2018-11-05T10:14:49.160Z,51.69
2018-11-05T10:17:15.185Z,51.71
2018-11-05T10:19:41.210Z,51.62
2018-11-05T10:22:07.197Z,51.55
2018-11-05T10:24:33.313Z,51.51
2018-11-05T10:26:59.209Z,51.37
2018-11-05T10:29:25.204Z,51.50
2018-11-05T10:31:51.242Z,51.51
2018-11-05T10:34:17.200Z,51.54
2018-11-05T10:36:43.198Z,51.54
2018-11-05T10:39:09.210Z,51.39
2018-11-05T10:41:35.200Z,51.54
2018-11-05T10:44:01.270Z,51.46
2018-11-05T10:46:27.255Z,51.55
2018-11-05T10:48:53.297Z,51.53
2018-11-05T10:51:19.356Z,51.52
2018-11-05T10:56:28.687Z,51.59
2018-11-05T10:58:54.707Z,51.45
2018-11-05T11:01:20.721Z,51.42
2018-11-05T11:03:46.786Z,51.42
2018-11-05T11:06:12.710Z,51.40
2018-11-05T11:08:38.706Z,51.47
2018-11-05T11:11:04.716Z,51.34
2018-11-05T11:13:30.732Z,51.26
2018-11-05T11:15:56.737Z,51.39
2018-11-05T11:18:22.749Z,51.33
2018-11-05T11:20:48.748Z,51.38
2018-11-05T11:23:14.737Z,51.27
2018-11-05T11:25:40.750Z,51.23
2018-11-05T11:28:07.042Z,51.35
2018-11-05T11:30:32.857Z,51.21
2018-11-05T11:32:58.873Z,51.25
2018-11-05T11:35:24.852Z,51.17
2018-11-05T11:37:50.913Z,51.26
2018-11-05T11:40:16.991Z,51.19
2018-11-05T11:42:42.976Z,51.22
2018-11-05T11:45:08.956Z,51.13
2018-11-05T11:47:35.008Z,51.07
2018-11-05T11:50:00.972Z,51.00
2018-11-05T11:52:26.967Z,51.14
2018-11-05T11:54:52.972Z,51.10
2018-11-05T11:57:19.051Z,51.07
2018-11-05T11:59:45.201Z,51.01
2018-11-05T12:02:11.142Z,50.97
2018-11-05T12:04:37.136Z,50.99
2018-11-05T12:07:03.147Z,50.89
2018-11-05T12:09:29.202Z,51.03
2018-11-05T12:11:55.238Z,51.06
2018-11-05T12:14:21.236Z,51.00
2018-11-05T12:16:47.209Z,51.21
2018-11-05T12:19:13.296Z,51.11
2018-11-05T12:21:39.278Z,51.11
2018-11-05T12:24:05.424Z,51.12
2018-11-05T12:26:31.411Z,51.00
2018-11-05T12:28:57.358Z,50.97
2018-11-05T12:31:23.407Z,51.04
2018-11-05T12:33:49.389Z,50.85
2018-11-05T12:36:15.380Z,50.95
2018-11-05T12:38:41.455Z,50.88
2018-11-05T12:41:07.386Z,50.88
2018-11-05T12:43:33.394Z,50.89
2018-11-05T12:45:59.412Z,50.77
2018-11-05T12:48:25.389Z,50.91
2018-11-05T12:50:51.446Z,50.84
2018-11-05T12:53:17.461Z,50.74
2018-11-05T12:55:43.473Z,50.75
2018-11-05T12:58:09.591Z,50.67
2018-11-05T13:00:35.576Z,50.73
2018-11-05T13:03:01.621Z,50.74
2018-11-05T13:05:27.616Z,50.71
2018-11-05T13:07:53.641Z,50.79
2018-11-05T13:10:19.694Z,50.82
2018-11-05T13:12:45.710Z,50.61
2018-11-05T13:15:11.724Z,50.78
2018-11-05T13:17:37.960Z,50.77
2018-11-05T13:20:03.973Z,50.77
2018-11-05T13:22:30.049Z,50.80
2018-11-05T13:24:55.997Z,50.76
2018-11-05T13:27:22.060Z,50.81
2018-11-05T13:29:48.165Z,50.68
2018-11-05T13:32:14.074Z,50.66
2018-11-05T13:34:40.096Z,50.68
2018-11-05T13:37:06.251Z,50.72
2018-11-05T13:39:32.190Z,50.81
2018-11-05T13:41:58.168Z,50.73
2018-11-05T13:44:24.154Z,50.82
2018-11-05T13:46:50.638Z,50.81
2018-11-05T13:49:16.210Z,50.92
2018-11-05T13:51:42.134Z,50.92
2018-11-05T13:54:08.134Z,50.92
2018-11-05T13:56:34.173Z,51.01
2018-11-05T13:59:00.293Z,51.01
2018-11-05T14:01:26.324Z,51.10
2018-11-05T14:03:52.332Z,51.15
2018-11-05T14:06:18.300Z,51.11
2018-11-05T14:08:44.358Z,51.09
2018-11-05T14:11:10.326Z,51.10
2018-11-05T14:13:36.313Z,51.10
2018-11-05T14:16:02.361Z,51.00
2018-11-05T14:18:28.424Z,51.16
2018-11-05T14:20:54.604Z,51.13
2018-11-05T14:23:20.574Z,51.06
2018-11-05T14:25:46.840Z,51.10
2018-11-05T14:28:13.009Z,51.07
2018-11-05T14:30:38.623Z,51.00
2018-11-05T14:33:04.646Z,51.13
2018-11-05T14:35:30.679Z,51.19
2018-11-05T14:37:56.732Z,51.25
2018-11-05T14:40:22.728Z,51.32
2018-11-05T14:42:48.798Z,51.34
2018-11-05T14:45:14.774Z,51.49
2018-11-05T14:47:40.744Z,51.75
2018-11-05T14:50:06.794Z,51.73
2018-11-05T14:52:32.784Z,51.62
2018-11-05T14:54:58.805Z,52.15
2018-11-05T14:57:24.903Z,52.25
2018-11-05T14:59:50.824Z,52.99
2018-11-05T15:02:16.824Z,53.11
2018-11-05T15:04:42.860Z,53.48
2018-11-05T15:07:08.855Z,55.88
2018-11-05T15:09:34.849Z,54.78
2018-11-05T15:12:00.854Z,54.98
2018-11-05T15:14:26.864Z,54.55
2018-11-05T15:16:52.901Z,53.64
2018-11-05T15:19:19.413Z,53.56
2018-11-05T15:21:44.920Z,53.05
2018-11-05T15:24:10.929Z,52.85
2018-11-05T15:26:37.082Z,52.91
2018-11-05T15:29:03.104Z,52.62
2018-11-05T15:31:29.111Z,52.56
2018-11-05T15:33:55.254Z,52.57
2018-11-05T15:36:22.074Z,52.46
2018-11-05T15:38:48.101Z,52.17
2018-11-05T15:41:14.177Z,51.97
2018-11-05T15:43:40.201Z,51.88
2018-11-05T15:46:06.203Z,51.70
2018-11-05T15:48:32.209Z,51.82
2018-11-05T15:50:58.241Z,51.82
2018-11-05T15:53:24.751Z,51.74
2018-11-05T15:55:50.212Z,51.73
2018-11-05T15:58:16.210Z,51.64
2018-11-05T16:00:42.219Z,51.34
2018-11-05T16:03:08.266Z,51.09
2018-11-05T16:05:34.296Z,50.42
2018-11-05T16:08:00.313Z,50.66
2018-11-05T16:10:26.481Z,50.35
2018-11-05T16:12:52.470Z,50.30
2018-11-05T16:15:18.490Z,50.27
2018-11-05T16:17:44.439Z,49.94
2018-11-05T16:20:10.513Z,49.55
2018-11-05T16:22:36.532Z,49.66
2018-11-05T16:25:02.629Z,49.64
2018-11-05T16:27:28.659Z,49.35
2018-11-05T16:29:54.678Z,48.67
2018-11-05T16:32:20.706Z,48.85
2018-11-05T16:34:46.788Z,49.43
2018-11-05T16:37:12.736Z,49.23
2018-11-05T16:39:38.910Z,49.59
2018-11-05T16:42:04.764Z,50.01
2018-11-05T16:44:30.773Z,50.24
2018-11-05T16:46:56.788Z,50.56
2018-11-05T16:49:22.849Z,50.59
2018-11-05T16:51:48.890Z,50.70
2018-11-05T16:54:14.874Z,50.65
2018-11-05T16:56:40.878Z,50.67
2018-11-05T16:59:09.135Z,50.78
2018-11-05T17:01:35.441Z,50.80
2018-11-05T17:04:01.185Z,50.87
2018-11-05T17:06:27.222Z,50.82
2018-11-05T17:08:53.435Z,50.98
2018-11-05T17:11:19.529Z,50.94
2018-11-05T17:13:45.678Z,51.09
2018-11-05T17:16:11.559Z,51.08
2018-11-05T17:18:37.563Z,51.16
2018-11-05T17:21:03.576Z,51.24
2018-11-05T17:23:29.650Z,51.33
2018-11-05T17:25:55.700Z,51.29
2018-11-05T17:28:21.720Z,51.10
2018-11-05T17:30:47.710Z,51.13
2018-11-05T17:33:13.730Z,51.09
2018-11-05T17:35:39.755Z,51.16
2018-11-05T17:38:05.782Z,51.13
2018-11-05T17:40:31.782Z,51.21
2018-11-05T17:42:57.818Z,51.12
2018-11-05T17:45:23.830Z,51.14
2018-11-05T17:47:49.850Z,51.16
2018-11-05T17:50:15.873Z,51.22
2018-11-05T17:52:41.837Z,51.12
2018-11-05T17:55:07.875Z,51.08
2018-11-05T17:57:33.833Z,51.10
2018-11-05T17:59:59.813Z,51.13
2018-11-05T18:02:25.855Z,51.20
2018-11-05T18:04:51.862Z,51.25
2018-11-05T18:07:17.860Z,51.31
2018-11-05T18:09:43.853Z,51.39
2018-11-05T18:12:09.892Z,51.42
2018-11-05T18:14:35.895Z,51.41
2018-11-05T18:17:01.890Z,51.51
2018-11-05T18:19:27.883Z,51.39
2018-11-05T18:21:53.888Z,51.50
2018-11-05T18:24:19.978Z,51.67
2018-11-05T18:26:45.938Z,51.65
2018-11-05T18:29:11.955Z,51.48
2018-11-05T18:31:37.983Z,51.64
2018-11-05T18:34:03.946Z,51.75
2018-11-05T18:36:30.009Z,51.58
2018-11-05T18:38:56.014Z,51.70
2018-11-05T18:41:21.999Z,51.97
2018-11-05T18:43:48.039Z,51.95
2018-11-05T18:46:14.057Z,51.90
2018-11-05T18:48:40.130Z,52.03
2018-11-05T18:51:06.158Z,52.10
2018-11-05T18:53:32.142Z,51.82
2018-11-05T18:55:58.173Z,52.15
2018-11-05T18:58:24.183Z,52.01
2018-11-05T19:00:50.282Z,51.91
2018-11-05T19:03:16.300Z,51.91
2018-11-05T19:05:42.602Z,51.92
2018-11-05T19:08:08.976Z,51.82
2018-11-05T19:10:35.025Z,51.90
2018-11-05T19:13:01.016Z,52.18
2018-11-05T19:15:27.005Z,52.82
2018-11-05T19:17:52.997Z,52.81
2018-11-05T19:20:19.015Z,52.75
2018-11-05T19:22:45.183Z,52.87
2018-11-05T19:25:11.161Z,52.87
2018-11-05T19:27:37.148Z,53.13
2018-11-05T19:30:03.331Z,53.02
2018-11-05T19:32:29.323Z,52.76
2018-11-05T19:34:55.531Z,52.69
2018-11-05T19:37:21.586Z,52.42
2018-11-05T19:39:47.583Z,52.40
2018-11-05T19:42:13.801Z,52.08
2018-11-05T19:44:43.477Z,51.87
2018-11-05T19:47:09.501Z,51.67
2018-11-05T19:49:35.541Z,51.72
2018-11-05T19:52:01.479Z,51.59
2018-11-05T19:54:27.490Z,51.51
2018-11-05T19:56:53.477Z,51.45
2018-11-05T19:59:19.527Z,51.41
2018-11-05T20:01:45.544Z,51.26
2018-11-05T20:04:11.595Z,51.12
2018-11-05T20:06:37.559Z,51.28
2018-11-05T20:09:03.546Z,51.34
2018-11-05T20:11:29.548Z,51.38
2018-11-05T20:13:55.595Z,51.34
2018-11-05T20:16:21.607Z,51.36
2018-11-05T20:18:47.607Z,51.32
2018-11-05T20:21:13.567Z,51.21
2018-11-05T20:23:39.548Z,50.63
2018-11-05T20:26:05.578Z,50.88
2018-11-05T20:28:31.632Z,50.93
2018-11-05T20:30:57.684Z,51.00
2018-11-05T20:33:23.943Z,51.08
2018-11-05T20:35:49.546Z,51.11
2018-11-05T20:38:15.628Z,51.13
2018-11-05T20:40:41.628Z,51.16
2018-11-05T20:43:07.604Z,51.18
2018-11-05T20:45:33.656Z,51.23
2018-11-05T20:47:59.670Z,51.31
2018-11-05T20:50:25.692Z,51.33
2018-11-05T20:52:51.708Z,51.39
2018-11-05T20:55:17.695Z,51.34
2018-11-05T20:57:43.716Z,51.34
2018-11-05T21:00:10.286Z,51.40
2018-11-05T21:02:36.549Z,51.39
2018-11-05T21:05:02.533Z,51.40
2018-11-05T21:07:28.734Z,51.42
2018-11-05T21:09:54.958Z,51.45
2018-11-05T21:12:22.479Z,51.44
2018-11-05T21:14:48.841Z,51.46
2018-11-05T21:17:14.814Z,51.50
2018-11-05T21:19:40.929Z,51.50
2018-11-05T21:22:06.894Z,51.45
2018-11-05T21:24:32.871Z,51.47
2018-11-05T21:26:58.945Z,51.56
2018-11-05T21:29:24.890Z,51.49
2018-11-05T21:31:50.913Z,51.56
2018-11-05T21:34:16.906Z,51.46
2018-11-05T21:36:42.910Z,51.42
2018-11-05T21:39:08.899Z,51.37
2018-11-05T21:41:34.905Z,51.31
2018-11-05T21:44:01.015Z,51.30
2018-11-05T21:46:26.970Z,51.31
2018-11-05T21:48:52.975Z,51.27
2018-11-05T21:51:18.965Z,51.30
2018-11-05T21:53:45.083Z,51.28
2018-11-05T21:56:11.065Z,51.20
2018-11-05T21:58:37.047Z,51.27
2018-11-05T22:01:03.081Z,51.25
2018-11-05T22:03:29.083Z,51.21
2018-11-05T22:05:55.094Z,51.19
2018-11-05T22:08:21.077Z,51.21
2018-11-05T22:10:47.079Z,51.18
2018-11-05T22:13:13.102Z,51.19
2018-11-05T22:15:39.106Z,51.22
2018-11-05T22:18:05.115Z,51.18
2018-11-05T22:20:31.106Z,51.20
2018-11-05T22:22:57.117Z,51.19
2018-11-05T22:25:23.114Z,51.15
2018-11-05T22:27:49.143Z,51.14
2018-11-05T22:30:15.185Z,51.16
2018-11-05T22:32:41.195Z,51.09
2018-11-05T22:35:07.207Z,51.13
2018-11-05T22:37:33.201Z,51.10
2018-11-05T22:39:59.203Z,51.05
2018-11-05T22:42:25.200Z,51.02
2018-11-05T22:44:51.242Z,50.97
2018-11-05T22:47:17.257Z,50.91
2018-11-05T22:49:43.258Z,51.02
2018-11-05T22:52:09.277Z,50.89
2018-11-05T22:54:35.265Z,50.92
2018-11-05T22:57:01.303Z,50.89
2018-11-05T22:59:27.295Z,50.91
2018-11-05T23:01:53.301Z,50.91
2018-11-05T23:04:19.290Z,50.85
2018-11-05T23:06:45.302Z,50.76
2018-11-05T23:09:11.307Z,50.76
2018-11-05T23:11:37.298Z,50.77
2018-11-05T23:14:03.313Z,50.77
2018-11-05T23:16:29.350Z,50.82
2018-11-05T23:18:55.336Z,50.73
2018-11-05T23:21:21.317Z,50.79
2018-11-05T23:23:47.312Z,50.69
2018-11-05T23:26:13.293Z,50.67
2018-11-05T23:28:39.318Z,50.49
2018-11-05T23:31:05.305Z,50.63
2018-11-05T23:33:31.357Z,50.51
2018-11-05T23:35:57.274Z,50.54
2018-11-05T23:38:23.286Z,50.59
2018-11-05T23:40:49.306Z,50.55
2018-11-05T23:43:15.334Z,50.46
2018-11-05T23:45:41.343Z,50.22
2018-11-05T23:48:07.348Z,50.47
2018-11-05T23:50:33.345Z,50.28
2018-11-05T23:52:59.348Z,50.44
2018-11-05T23:55:25.362Z,50.38
2018-11-05T23:57:51.362Z,50.36
